createdAt,value
2022-08-05T00:00:48.355Z,87.73
2022-08-05T00:01:49.502Z,87.62
2022-08-05T00:02:43.919Z,87.52
2022-08-05T00:03:41.693Z,88.12
2022-08-05T00:04:40.711Z,88.32
2022-08-05T00:06:04.601Z,88.02
2022-08-05T00:06:41.670Z,88.47
2022-08-05T00:07:59.837Z,89.27
2022-08-05T00:08:41.646Z,89.07
2022-08-05T00:09:40.672Z,88.97
2022-08-05T00:10:40.617Z,89.07
2022-08-05T00:11:48.268Z,88.87
2022-08-05T00:12:56.870Z,88.37
2022-08-05T00:13:41.581Z,89.07
2022-08-05T00:14:40.631Z,88.47
2022-08-05T00:15:57.656Z,88.87
2022-08-05T00:16:53.283Z,89.07
2022-08-05T00:17:41.549Z,89.87
2022-08-05T00:18:40.568Z,89.62
2022-08-05T00:19:45.582Z,89.62
2022-08-05T00:20:41.503Z,89.51
2022-08-05T00:21:42.674Z,89.62
2022-08-05T00:22:40.492Z,89.72
2022-08-05T00:23:46.934Z,89.62
2022-08-05T00:24:42.182Z,89.72
2022-08-05T00:25:45.994Z,89.42
2022-08-05T00:26:50.642Z,89.42
2022-08-05T00:27:42.897Z,89.31
2022-08-05T00:28:40.418Z,89.22
2022-08-05T00:29:40.429Z,89.51
2022-08-05T00:30:41.256Z,89.11
2022-08-05T00:31:41.351Z,89.42
2022-08-05T00:32:41.381Z,89.62
2022-08-05T00:34:55.374Z,89.31
2022-08-05T00:34:56.732Z,89.51
2022-08-05T00:36:14.800Z,89.36
2022-08-05T00:37:11.240Z,89.42
2022-08-05T00:37:52.514Z,89.36
2022-08-05T00:38:41.353Z,89.66
2022-08-05T00:39:41.599Z,89.76
2022-08-05T00:40:40.302Z,89.76
2022-08-05T00:41:55.327Z,90.06
2022-08-05T00:42:41.281Z,89.15
2022-08-05T00:43:46.596Z,89.76
2022-08-05T00:44:41.247Z,89.96
2022-08-05T00:45:43.917Z,89.92
2022-08-05T00:46:43.602Z,89.56
2022-08-05T00:47:57.128Z,89.96
2022-08-05T00:48:50.751Z,90.36
2022-08-05T00:49:50.988Z,90.77
2022-08-05T00:50:41.922Z,90.56
2022-08-05T00:51:51.100Z,90.77
2022-08-05T00:52:41.145Z,90.56
2022-08-05T00:54:00.206Z,90.46
2022-08-05T00:54:41.125Z,90.26
2022-08-05T00:55:43.505Z,90.26
2022-08-05T00:56:40.150Z,90.91
2022-08-05T00:57:58.595Z,90.70
2022-08-05T00:58:42.578Z,90.70
2022-08-05T00:59:44.446Z,90.46
2022-08-05T01:00:42.180Z,90.36
2022-08-05T01:01:42.862Z,90.46
2022-08-05T01:02:41.079Z,91.06
2022-08-05T01:03:40.058Z,90.46
2022-08-05T01:04:42.198Z,90.66
2022-08-05T01:05:40.000Z,90.66
2022-08-05T01:06:40.006Z,90.77
2022-08-05T01:08:29.887Z,90.66
2022-08-05T01:08:44.624Z,90.46
2022-08-05T01:09:39.949Z,90.16
2022-08-05T01:10:39.965Z,90.56
2022-08-05T01:11:41.064Z,90.46
2022-08-05T01:12:39.921Z,90.77
2022-08-05T01:13:57.287Z,90.26
2022-08-05T01:14:40.891Z,90.77
2022-08-05T01:15:39.900Z,90.66
2022-08-05T01:16:40.873Z,90.36
2022-08-05T01:17:43.876Z,90.91
2022-08-05T01:18:39.893Z,90.70
2022-08-05T01:20:01.682Z,91.82
2022-08-05T01:20:40.903Z,91.71
2022-08-05T01:21:39.870Z,91.82
2022-08-05T01:22:39.809Z,91.61
2022-08-05T01:23:39.888Z,91.61
2022-08-05T01:24:39.797Z,91.51
2022-08-05T01:25:41.564Z,91.82
2022-08-05T01:26:39.756Z,91.41
2022-08-05T01:27:50.683Z,91.21
2022-08-05T01:28:41.002Z,91.01
2022-08-05T01:29:39.766Z,91.61
2022-08-05T01:30:39.741Z,92.02
2022-08-05T01:31:45.023Z,91.75
2022-08-05T01:32:39.693Z,91.66
2022-08-05T01:33:40.739Z,91.66
2022-08-05T01:34:39.668Z,91.66
2022-08-05T01:35:51.697Z,91.66
2022-08-05T01:36:42.147Z,91.46
2022-08-05T01:37:44.499Z,91.66
2022-08-05T01:38:39.623Z,91.66
2022-08-05T01:39:46.548Z,91.66
2022-08-05T01:40:40.630Z,91.25
2022-08-05T01:41:39.615Z,91.15
2022-08-05T01:42:39.612Z,91.46
2022-08-05T01:43:39.573Z,91.70
2022-08-05T01:44:39.553Z,91.25
2022-08-05T01:45:43.049Z,91.46
2022-08-05T01:46:42.810Z,91.46
2022-08-05T01:47:43.179Z,91.25
2022-08-05T01:48:39.509Z,91.66
2022-08-05T01:50:00.048Z,91.75
2022-08-05T01:50:40.494Z,91.55
2022-08-05T01:51:40.529Z,91.75
2022-08-05T01:52:40.506Z,91.46
2022-08-05T01:53:57.134Z,91.25
2022-08-05T01:54:45.892Z,91.55
2022-08-05T01:55:40.427Z,92.30
2022-08-05T01:58:12.768Z,92.20
2022-08-05T01:58:13.647Z,91.90
2022-08-05T01:58:45.052Z,92.40
2022-08-05T01:59:40.410Z,91.90
2022-08-05T02:00:39.373Z,92.30
2022-08-05T02:01:40.202Z,92.10
2022-08-05T02:02:39.387Z,92.45
2022-08-05T02:03:40.339Z,92.65
2022-08-05T02:04:40.636Z,92.95
2022-08-05T02:05:39.357Z,92.85
2022-08-05T02:06:39.459Z,92.75
2022-08-05T02:07:39.304Z,92.85
2022-08-05T02:08:54.878Z,93.26
2022-08-05T02:09:40.320Z,93.76
2022-08-05T02:10:39.303Z,93.86
2022-08-05T02:11:42.151Z,94.16
2022-08-05T02:12:40.304Z,93.66
2022-08-05T02:13:53.402Z,93.26
2022-08-05T02:14:40.345Z,93.96
2022-08-05T02:15:39.234Z,94.06
2022-08-05T02:16:39.195Z,94.06
2022-08-05T02:18:28.358Z,94.06
2022-08-05T02:18:41.796Z,94.26
2022-08-05T02:19:47.070Z,94.06
2022-08-05T02:20:40.195Z,94.06
2022-08-05T02:21:43.220Z,93.35
2022-08-05T02:22:39.126Z,93.66
2022-08-05T02:23:39.186Z,93.96
2022-08-05T02:24:39.138Z,93.96
2022-08-05T02:25:49.943Z,94.06
2022-08-05T02:26:41.101Z,94.06
2022-08-05T02:27:59.093Z,93.76
2022-08-05T02:28:41.758Z,93.66
2022-08-05T02:29:59.569Z,93.76
2022-08-05T02:30:51.685Z,94.20
2022-08-05T02:31:40.025Z,94.10
2022-08-05T02:32:39.036Z,93.90
2022-08-05T02:33:39.405Z,94.40
2022-08-05T02:34:38.989Z,94.20
2022-08-05T02:35:51.044Z,94.51
2022-08-05T02:36:40.086Z,94.60
2022-08-05T02:37:39.001Z,94.71
2022-08-05T02:38:38.984Z,94.91
2022-08-05T02:39:41.308Z,94.71
2022-08-05T02:40:38.923Z,95.01
2022-08-05T02:41:58.112Z,94.60
2022-08-05T02:42:39.924Z,94.51
2022-08-05T02:44:05.953Z,94.71
2022-08-05T02:44:39.876Z,94.71
2022-08-05T02:45:51.427Z,94.91
2022-08-05T02:46:53.519Z,94.71
2022-08-05T02:48:06.792Z,95.01
2022-08-05T02:48:39.870Z,94.95
2022-08-05T02:49:40.582Z,94.81
2022-08-05T02:50:38.810Z,94.85
2022-08-05T02:52:01.189Z,95.36
2022-08-05T02:52:39.802Z,94.85
2022-08-05T02:53:39.319Z,94.85
2022-08-05T02:54:41.665Z,94.71
2022-08-05T02:55:55.109Z,95.15
2022-08-05T02:56:39.825Z,95.41
2022-08-05T02:58:11.668Z,95.15
2022-08-05T02:58:43.764Z,94.95
2022-08-05T02:59:50.475Z,95.51
2022-08-05T03:00:39.741Z,95.46
2022-08-05T03:01:38.777Z,95.66
2022-08-05T03:02:38.689Z,95.81
2022-08-05T03:04:02.183Z,95.56
2022-08-05T03:04:39.704Z,95.36
2022-08-05T03:06:54.854Z,94.55
2022-08-05T03:06:55.813Z,95.36
2022-08-05T03:08:01.430Z,94.85
2022-08-05T03:08:42.416Z,94.75
2022-08-05T03:09:43.902Z,94.85
2022-08-05T03:10:39.610Z,94.75
2022-08-05T03:11:57.200Z,94.65
2022-08-05T03:12:39.624Z,94.91
2022-08-05T03:13:52.187Z,94.35
2022-08-05T03:14:46.019Z,94.20
2022-08-05T03:15:39.542Z,94.40
2022-08-05T03:16:38.572Z,94.00
2022-08-05T03:17:41.643Z,93.80
2022-08-05T03:18:38.538Z,93.70
2022-08-05T03:19:38.484Z,94.20
2022-08-05T03:20:38.551Z,94.15
2022-08-05T03:21:41.636Z,94.35
2022-08-05T03:22:46.775Z,94.65
2022-08-05T03:23:39.441Z,94.85
2022-08-05T03:24:38.431Z,94.85
2022-08-05T03:26:03.628Z,95.15
2022-08-05T03:26:39.546Z,94.95
2022-08-05T03:27:58.940Z,94.95
2022-08-05T03:28:39.426Z,95.46
2022-08-05T03:29:45.407Z,94.15
2022-08-05T03:30:41.200Z,93.95
2022-08-05T03:31:57.242Z,94.10
2022-08-05T03:32:39.364Z,94.31
2022-08-05T03:33:42.184Z,94.35
2022-08-05T03:34:39.320Z,93.90
2022-08-05T03:35:41.101Z,94.15
2022-08-05T03:36:38.296Z,93.85
2022-08-05T03:37:45.981Z,94.15
2022-08-05T03:38:39.301Z,94.35
2022-08-05T03:39:47.416Z,94.15
2022-08-05T03:40:39.355Z,94.35
2022-08-05T03:41:38.825Z,94.75
2022-08-05T03:42:51.479Z,94.65
2022-08-05T03:44:08.930Z,94.85
2022-08-05T03:44:39.233Z,94.95
2022-08-05T03:45:58.021Z,95.46
2022-08-05T03:46:39.251Z,95.06
2022-08-05T03:47:41.381Z,95.26
2022-08-05T03:48:38.167Z,95.56
2022-08-05T03:49:51.600Z,95.50
2022-08-05T03:50:39.179Z,95.76
2022-08-05T03:52:48.331Z,95.15
2022-08-05T03:55:00.387Z,95.61
2022-08-05T03:56:00.899Z,96.01
2022-08-05T03:56:01.222Z,95.90
2022-08-05T03:56:05.790Z,95.70
2022-08-05T03:56:41.254Z,95.70
2022-08-05T03:57:41.676Z,95.70
2022-08-05T03:58:38.053Z,96.01
2022-08-05T03:59:47.473Z,96.21
2022-08-05T04:00:39.041Z,96.41
2022-08-05T04:01:38.161Z,96.21
2022-08-05T04:02:51.883Z,96.11
2022-08-05T04:03:39.001Z,96.01
2022-08-05T04:04:38.006Z,95.70
2022-08-05T04:05:38.548Z,95.00
2022-08-05T04:06:37.985Z,95.00
2022-08-05T04:07:58.240Z,95.00
2022-08-05T04:08:38.941Z,95.40
2022-08-05T04:09:37.942Z,95.50
2022-08-05T04:10:38.954Z,95.81
2022-08-05T04:11:47.463Z,95.50
2022-08-05T04:13:08.683Z,95.61
2022-08-05T04:14:08.647Z,95.61
2022-08-05T04:15:08.635Z,95.50
2022-08-05T04:16:09.678Z,95.50
2022-08-05T04:17:08.641Z,95.70
2022-08-05T04:18:09.711Z,95.20
2022-08-05T04:19:10.584Z,95.10
2022-08-05T04:20:08.580Z,95.00
2022-08-05T04:21:10.974Z,95.20
2022-08-05T04:22:11.991Z,95.66
2022-08-05T04:23:08.576Z,94.95
2022-08-05T04:24:09.081Z,95.15
2022-08-05T04:25:09.528Z,95.10
2022-08-05T04:26:08.562Z,95.56
2022-08-05T04:27:09.506Z,95.56
2022-08-05T04:28:11.280Z,94.95
2022-08-05T04:29:08.493Z,94.95
2022-08-05T04:30:08.501Z,95.06
2022-08-05T04:31:08.497Z,94.75
2022-08-05T04:32:08.445Z,95.15
2022-08-05T04:33:08.457Z,94.85
2022-08-05T04:34:29.555Z,94.95
2022-08-05T04:35:17.693Z,95.06
2022-08-05T04:36:16.085Z,94.85
2022-08-05T04:37:09.405Z,94.85
2022-08-05T04:38:08.392Z,95.06
2022-08-05T04:39:08.479Z,95.56
2022-08-05T04:40:08.390Z,94.95
2022-08-05T04:41:09.477Z,95.15
2022-08-05T04:42:08.369Z,94.85
2022-08-05T04:43:11.047Z,94.85
2022-08-05T04:44:09.961Z,95.11
2022-08-05T04:45:08.305Z,94.51
2022-08-05T04:46:09.292Z,93.95
2022-08-05T04:47:09.362Z,94.10
2022-08-05T04:48:16.361Z,94.31
2022-08-05T04:49:12.145Z,93.90
2022-08-05T04:50:11.518Z,93.90
2022-08-05T04:51:11.417Z,93.70
2022-08-05T04:52:08.234Z,93.80
2022-08-05T04:53:08.514Z,93.90
2022-08-05T04:54:08.198Z,94.06
2022-08-05T04:55:14.449Z,93.86
2022-08-05T04:56:33.192Z,93.86
2022-08-05T04:57:09.163Z,93.86
2022-08-05T04:58:08.178Z,94.26
2022-08-05T04:59:24.281Z,93.46
2022-08-05T05:00:09.164Z,93.76
2022-08-05T05:01:08.175Z,92.50
2022-08-05T05:02:41.598Z,92.30
2022-08-05T05:03:09.149Z,92.50
2022-08-05T05:04:08.127Z,92.40
2022-08-05T05:05:16.827Z,93.11
2022-08-05T05:06:40.505Z,93.11
2022-08-05T05:07:09.544Z,92.80
2022-08-05T05:08:14.354Z,93.01
2022-08-05T05:09:09.069Z,92.66
2022-08-05T05:10:08.106Z,92.56
2022-08-05T05:11:08.005Z,92.66
2022-08-05T05:12:08.018Z,92.56
2022-08-05T05:13:08.035Z,92.50
2022-08-05T05:14:08.706Z,91.25
2022-08-05T05:15:10.932Z,92.26
2022-08-05T05:16:07.949Z,92.36
2022-08-05T05:17:07.945Z,91.31
2022-08-05T05:18:08.476Z,92.02
2022-08-05T05:19:19.232Z,92.02
2022-08-05T05:20:08.901Z,91.91
2022-08-05T05:21:07.929Z,91.82
2022-08-05T05:22:23.943Z,90.56
2022-08-05T05:23:19.711Z,91.06
2022-08-05T05:24:09.329Z,91.77
2022-08-05T05:25:16.600Z,90.26
2022-08-05T05:26:08.834Z,90.66
2022-08-05T05:27:07.823Z,90.52
2022-08-05T05:28:07.820Z,90.32
2022-08-05T05:29:10.071Z,90.62
2022-08-05T05:30:08.843Z,89.72
2022-08-05T05:31:09.021Z,89.62
2022-08-05T05:32:07.767Z,89.78
2022-08-05T05:33:16.418Z,90.28
2022-08-05T05:34:08.794Z,89.67
2022-08-05T05:35:07.768Z,89.87
2022-08-05T05:36:07.733Z,88.53
2022-08-05T05:37:07.730Z,89.13
2022-08-05T05:38:08.938Z,89.33
2022-08-05T05:39:07.767Z,89.43
2022-08-05T05:40:08.056Z,89.59
2022-08-05T05:41:07.762Z,88.29
2022-08-05T05:42:07.662Z,88.63
2022-08-05T05:43:08.546Z,89.18
2022-08-05T05:44:15.701Z,88.39
2022-08-05T05:45:08.614Z,88.24
2022-08-05T05:46:13.739Z,88.24
2022-08-05T05:47:21.310Z,88.04
2022-08-05T05:48:08.980Z,88.04
2022-08-05T05:49:22.497Z,87.70
2022-08-05T05:50:08.583Z,87.50
2022-08-05T05:51:15.437Z,87.30
2022-08-05T05:52:08.604Z,86.80
2022-08-05T05:53:20.811Z,86.55
2022-08-05T05:54:08.512Z,86.55
2022-08-05T05:55:10.264Z,86.55
2022-08-05T05:56:08.526Z,85.82
2022-08-05T05:57:13.406Z,85.71
2022-08-05T05:58:08.563Z,84.21
2022-08-05T05:59:08.032Z,83.97
2022-08-05T06:00:07.448Z,82.97
2022-08-05T06:01:13.324Z,82.57
2022-08-05T06:02:08.473Z,82.47
2022-08-05T06:03:40.719Z,82.43
2022-08-05T06:04:08.587Z,82.13
2022-08-05T06:05:16.686Z,82.49
2022-08-05T06:06:08.391Z,81.29
2022-08-05T06:07:07.373Z,81.29
2022-08-05T06:08:07.379Z,80.45
2022-08-05T06:09:07.669Z,80.35
2022-08-05T06:10:10.348Z,80.35
2022-08-05T06:11:07.328Z,80.02
2022-08-05T06:12:09.674Z,80.02
2022-08-05T06:13:07.310Z,79.97
2022-08-05T06:14:07.307Z,79.78
2022-08-05T06:15:08.076Z,79.48
2022-08-05T06:16:29.864Z,78.88
2022-08-05T06:17:24.579Z,78.44
2022-08-05T06:18:08.274Z,78.14
2022-08-05T06:19:08.061Z,77.94
2022-08-05T06:20:07.225Z,78.04
2022-08-05T06:21:18.565Z,78.11
2022-08-05T06:22:08.195Z,78.20
2022-08-05T06:23:07.233Z,78.80
2022-08-05T06:24:07.780Z,78.14
2022-08-05T06:25:59.016Z,78.54
2022-08-05T06:26:13.256Z,76.84
2022-08-05T06:28:08.781Z,76.81
2022-08-05T06:28:11.070Z,77.34
2022-08-05T06:29:42.860Z,77.51
2022-08-05T06:30:20.060Z,77.01
2022-08-05T06:31:11.302Z,76.31
2022-08-05T06:32:20.939Z,74.91
2022-08-05T06:33:09.961Z,73.82
2022-08-05T06:34:08.907Z,74.81
2022-08-05T06:35:21.785Z,72.88
2022-08-05T06:36:10.114Z,72.98
2022-08-05T06:37:07.069Z,73.05
2022-08-05T06:38:11.137Z,72.38
2022-08-05T06:39:07.243Z,72.25
2022-08-05T06:40:07.083Z,72.55
2022-08-05T06:41:08.145Z,72.61
2022-08-05T06:42:07.006Z,72.31
2022-08-05T06:43:07.009Z,70.92
2022-08-05T06:44:07.955Z,71.02
2022-08-05T06:45:08.830Z,70.98
2022-08-05T06:46:07.536Z,70.19
2022-08-05T06:47:06.951Z,69.96
2022-08-05T06:48:44.294Z,69.16
2022-08-05T06:49:08.463Z,69.36
2022-08-05T06:50:06.919Z,69.23
2022-08-05T06:51:09.552Z,69.03
2022-08-05T06:52:08.010Z,68.93
2022-08-05T06:53:11.759Z,68.63
2022-08-05T06:54:08.019Z,69.59
2022-08-05T06:55:06.884Z,67.50
2022-08-05T06:56:06.858Z,67.90
2022-08-05T06:57:56.700Z,67.90
2022-08-05T06:58:19.982Z,68.07
2022-08-05T06:59:08.652Z,69.26
2022-08-05T07:00:06.785Z,68.46
2022-08-05T07:01:07.009Z,68.46
2022-08-05T07:02:06.757Z,68.16
2022-08-05T07:03:07.494Z,67.44
2022-08-05T07:04:06.750Z,66.94
2022-08-05T07:05:15.425Z,67.31
2022-08-05T07:06:13.883Z,65.72
2022-08-05T07:07:08.062Z,65.62
2022-08-05T07:08:06.686Z,65.12
2022-08-05T07:09:06.673Z,65.12
2022-08-05T07:10:06.680Z,64.70
2022-08-05T07:11:06.655Z,64.20
2022-08-05T07:12:07.788Z,64.30
2022-08-05T07:13:06.625Z,63.80
2022-08-05T07:14:06.664Z,63.01
2022-08-05T07:15:06.624Z,63.18
2022-08-05T07:16:06.633Z,63.37
2022-08-05T07:18:02.423Z,62.88
2022-08-05T07:18:10.199Z,63.37
2022-08-05T07:19:06.609Z,63.34
2022-08-05T07:21:07.570Z,63.54
2022-08-05T07:22:06.573Z,62.75
2022-08-05T07:23:06.631Z,62.95
2022-08-05T07:24:11.234Z,63.15
2022-08-05T07:25:21.890Z,63.12
2022-08-05T07:26:07.523Z,62.82
2022-08-05T07:27:08.995Z,62.62
2022-08-05T07:28:11.504Z,62.23
2022-08-05T07:29:07.487Z,62.32
2022-08-05T07:30:28.014Z,63.02
2022-08-05T07:31:07.454Z,62.82
2022-08-05T07:32:06.426Z,61.70
2022-08-05T07:33:09.491Z,61.80
2022-08-05T07:34:06.447Z,61.80
2022-08-05T07:35:55.986Z,61.07
2022-08-05T07:36:19.795Z,61.00
2022-08-05T07:37:07.391Z,60.51
2022-08-05T07:38:06.425Z,60.78
2022-08-05T07:39:07.372Z,61.30
2022-08-05T07:40:32.580Z,61.70
2022-08-05T07:41:35.167Z,61.73
2022-08-05T07:42:14.194Z,62.52
2022-08-05T07:43:20.415Z,62.23
2022-08-05T07:44:14.435Z,61.73
2022-08-05T07:45:09.287Z,63.12
2022-08-05T07:46:06.275Z,62.05
2022-08-05T07:47:08.000Z,62.35
2022-08-05T07:48:06.240Z,63.05
2022-08-05T07:49:07.794Z,62.65
2022-08-05T07:50:06.556Z,62.26
2022-08-05T07:51:23.091Z,62.45
2022-08-05T07:52:07.194Z,61.66
2022-08-05T07:53:06.194Z,62.35
2022-08-05T07:54:06.178Z,62.75
2022-08-05T07:55:16.049Z,61.73
2022-08-05T07:57:00.032Z,61.93
2022-08-05T07:57:18.021Z,61.73
2022-08-05T07:58:07.302Z,61.73
2022-08-05T07:59:08.636Z,61.23
2022-08-05T08:00:06.174Z,61.70
2022-08-05T08:01:07.190Z,60.51
2022-08-05T08:02:07.116Z,61.30
2022-08-05T08:03:13.589Z,61.10
2022-08-05T08:04:07.069Z,60.31
2022-08-05T08:05:06.064Z,60.11
2022-08-05T08:06:06.123Z,59.92
2022-08-05T08:07:07.138Z,61.30
2022-08-05T08:08:06.064Z,61.40
2022-08-05T08:09:07.049Z,60.11
2022-08-05T08:10:06.038Z,60.48
2022-08-05T08:11:08.853Z,60.41
2022-08-05T08:12:14.312Z,60.21
2022-08-05T08:13:07.545Z,60.48
2022-08-05T08:14:05.960Z,60.19
2022-08-05T08:15:09.408Z,59.59
2022-08-05T08:16:42.987Z,60.68
2022-08-05T08:17:06.913Z,59.59
2022-08-05T08:18:09.723Z,59.56
2022-08-05T08:19:06.892Z,59.46
2022-08-05T08:20:42.926Z,59.09
2022-08-05T08:21:09.793Z,59.06
2022-08-05T08:22:06.888Z,60.06
2022-08-05T08:23:05.920Z,58.47
2022-08-05T08:24:11.911Z,58.18
2022-08-05T08:25:16.294Z,58.40
2022-08-05T08:26:06.820Z,58.90
2022-08-05T08:27:07.117Z,58.83
2022-08-05T08:28:05.804Z,58.63
2022-08-05T08:29:29.381Z,58.63
2022-08-05T08:30:20.189Z,58.33
2022-08-05T08:31:06.761Z,58.73
2022-08-05T08:32:05.745Z,58.83
2022-08-05T08:33:08.255Z,59.52
2022-08-05T08:34:05.756Z,59.00
2022-08-05T08:35:05.740Z,59.03
2022-08-05T08:36:38.304Z,58.33
2022-08-05T08:37:06.700Z,58.50
2022-08-05T08:38:05.681Z,58.63
2022-08-05T08:39:05.775Z,58.70
2022-08-05T08:40:06.667Z,58.63
2022-08-05T08:41:05.656Z,58.83
2022-08-05T08:42:10.605Z,58.40
2022-08-05T08:44:55.761Z,58.90
2022-08-05T08:45:20.398Z,58.77
2022-08-05T08:45:23.608Z,58.30
2022-08-05T08:46:06.609Z,58.28
2022-08-05T08:47:21.649Z,58.37
2022-08-05T08:48:22.282Z,56.89
2022-08-05T08:50:14.225Z,56.99
2022-08-05T08:50:30.873Z,57.02
2022-08-05T08:51:54.643Z,57.71
2022-08-05T08:52:24.161Z,58.01
2022-08-05T08:53:11.868Z,57.90
2022-08-05T08:54:06.502Z,57.98
2022-08-05T08:55:11.124Z,58.18
2022-08-05T08:56:06.624Z,58.57
2022-08-05T08:57:05.471Z,58.57
2022-08-05T08:58:06.501Z,58.15
2022-08-05T08:59:14.678Z,58.64
2022-08-05T09:00:06.433Z,57.29
2022-08-05T09:01:05.508Z,56.99
2022-08-05T09:02:05.985Z,57.48
2022-08-05T09:03:05.401Z,58.50
2022-08-05T09:04:05.418Z,58.47
2022-08-05T09:05:17.966Z,58.47
2022-08-05T09:06:08.676Z,58.67
2022-08-05T09:07:10.724Z,57.95
2022-08-05T09:08:06.353Z,58.25
2022-08-05T09:09:05.370Z,58.64
2022-08-05T09:10:05.386Z,57.35
2022-08-05T09:11:05.363Z,57.06
2022-08-05T09:12:27.026Z,57.46
2022-08-05T09:13:06.290Z,57.46
2022-08-05T09:14:53.974Z,57.23
2022-08-05T09:15:06.695Z,57.33
2022-08-05T09:16:05.257Z,57.62
2022-08-05T09:17:08.152Z,57.89
2022-08-05T09:18:05.268Z,56.81
2022-08-05T09:19:06.817Z,55.33
2022-08-05T09:20:05.725Z,55.43
2022-08-05T09:21:05.215Z,56.19
2022-08-05T09:22:17.840Z,56.12
2022-08-05T09:23:07.598Z,55.82
2022-08-05T09:24:05.173Z,55.30
2022-08-05T09:25:23.848Z,56.19
2022-08-05T09:26:06.739Z,54.90
2022-08-05T09:27:05.164Z,55.00
2022-08-05T09:28:06.471Z,54.90
2022-08-05T09:29:05.150Z,55.47
2022-08-05T09:30:06.693Z,53.42
2022-08-05T09:31:18.152Z,53.59
2022-08-05T09:32:41.178Z,53.59
2022-08-05T09:33:06.100Z,54.85
2022-08-05T09:34:05.078Z,54.97
2022-08-05T09:35:05.072Z,54.85
2022-08-05T09:36:16.352Z,53.34
2022-08-05T09:37:06.026Z,52.95
2022-08-05T09:38:12.253Z,53.15
2022-08-05T09:39:18.277Z,52.43
2022-08-05T09:40:06.083Z,52.46
2022-08-05T09:41:04.983Z,51.47
2022-08-05T09:42:04.969Z,52.68
2022-08-05T09:43:04.990Z,52.78
2022-08-05T09:44:04.968Z,51.99
2022-08-05T09:45:17.791Z,52.87
2022-08-05T09:46:08.691Z,53.47
2022-08-05T09:47:04.916Z,53.25
2022-08-05T09:48:06.027Z,52.85
2022-08-05T09:49:07.792Z,52.46
2022-08-05T09:50:05.906Z,52.46
2022-08-05T09:51:04.913Z,52.16
2022-08-05T09:52:05.881Z,52.95
2022-08-05T09:53:05.865Z,52.66
2022-08-05T09:54:04.838Z,51.67
2022-08-05T09:55:55.086Z,51.64
2022-08-05T09:56:13.031Z,51.15
2022-08-05T09:57:05.807Z,52.23
2022-08-05T09:58:05.821Z,52.14
2022-08-05T09:59:04.786Z,51.12
2022-08-05T10:00:07.567Z,51.32
2022-08-05T10:01:13.316Z,50.76
2022-08-05T10:02:05.800Z,51.05
2022-08-05T10:03:04.847Z,51.35
2022-08-05T10:04:10.662Z,51.97
2022-08-05T10:05:05.731Z,51.37
2022-08-05T10:06:07.634Z,51.54
2022-08-05T10:07:25.038Z,51.74
2022-08-05T10:08:34.602Z,52.85
2022-08-05T10:09:05.676Z,52.56
2022-08-05T10:10:15.178Z,52.85
2022-08-05T10:11:05.696Z,53.44
2022-08-05T10:12:07.528Z,52.73
2022-08-05T10:13:09.902Z,53.22
2022-08-05T10:14:04.637Z,52.83
2022-08-05T10:15:05.611Z,52.04
2022-08-05T10:16:04.647Z,51.62
2022-08-05T10:17:04.590Z,51.64
2022-08-05T10:18:05.587Z,52.16
2022-08-05T10:19:09.357Z,53.15
2022-08-05T10:20:10.245Z,52.26
2022-08-05T10:21:06.307Z,52.16
2022-08-05T10:22:05.628Z,51.35
2022-08-05T10:23:04.540Z,51.57
2022-08-05T10:24:10.570Z,50.76
2022-08-05T10:25:05.524Z,51.54
2022-08-05T10:26:04.516Z,50.95
2022-08-05T10:27:04.622Z,52.33
2022-08-05T10:28:13.575Z,51.92
2022-08-05T10:29:05.547Z,51.32
2022-08-05T10:30:41.247Z,51.52
2022-08-05T10:32:50.726Z,50.93
2022-08-05T10:32:55.079Z,51.00
2022-08-05T10:33:09.062Z,50.81
2022-08-05T10:34:07.096Z,50.02
2022-08-05T10:35:04.432Z,49.62
2022-08-05T10:36:04.380Z,50.63
2022-08-05T10:37:04.388Z,51.10
2022-08-05T10:38:04.379Z,50.61
2022-08-05T10:39:05.052Z,50.44
2022-08-05T10:40:17.698Z,50.61
2022-08-05T10:41:05.489Z,50.71
2022-08-05T10:42:04.319Z,50.21
2022-08-05T10:43:04.676Z,50.51
2022-08-05T10:44:05.609Z,50.61
2022-08-05T10:45:21.171Z,49.33
2022-08-05T10:46:06.286Z,48.94
2022-08-05T10:47:04.283Z,49.62
2022-08-05T10:48:31.710Z,49.73
2022-08-05T10:49:10.063Z,50.02
2022-08-05T10:50:31.935Z,49.82
2022-08-05T10:51:05.232Z,50.21
2022-08-05T10:52:10.315Z,50.31
2022-08-05T10:53:05.247Z,50.81
2022-08-05T10:54:05.890Z,50.39
2022-08-05T10:55:05.176Z,49.90
2022-08-05T10:56:07.952Z,50.21
2022-08-05T10:57:05.194Z,50.12
2022-08-05T10:58:04.173Z,50.51
2022-08-05T10:59:12.721Z,50.49
2022-08-05T11:00:13.428Z,50.19
2022-08-05T11:01:05.162Z,50.39
2022-08-05T11:02:05.023Z,49.60
2022-08-05T11:03:25.464Z,50.29
2022-08-05T11:04:05.146Z,50.19
2022-08-05T11:05:04.072Z,50.29
2022-08-05T11:06:04.078Z,49.60
2022-08-05T11:07:04.082Z,50.19
2022-08-05T11:08:12.898Z,50.09
2022-08-05T11:09:05.049Z,49.87
2022-08-05T11:10:09.905Z,50.26
2022-08-05T11:11:12.004Z,50.85
2022-08-05T11:12:05.053Z,49.48
2022-08-05T11:13:04.023Z,49.16
2022-08-05T11:14:03.969Z,49.85
2022-08-05T11:15:19.262Z,48.27
2022-08-05T11:16:04.964Z,49.28
2022-08-05T11:17:57.478Z,49.68
2022-08-05T11:18:05.008Z,49.68
2022-08-05T11:20:10.612Z,49.28
2022-08-05T11:20:10.796Z,49.18
2022-08-05T11:21:11.813Z,48.82
2022-08-05T11:22:04.896Z,49.01
2022-08-05T11:23:06.144Z,49.40
2022-08-05T11:24:14.640Z,50.59
2022-08-05T11:26:03.409Z,49.21
2022-08-05T11:26:08.813Z,50.39
2022-08-05T11:27:03.846Z,49.99
2022-08-05T11:28:03.819Z,49.60
2022-08-05T11:29:11.449Z,49.01
2022-08-05T11:30:04.796Z,49.50
2022-08-05T11:31:06.081Z,49.70
2022-08-05T11:32:03.808Z,50.12
2022-08-05T11:33:04.196Z,50.21
2022-08-05T11:34:03.759Z,50.31
2022-08-05T11:35:03.756Z,49.50
2022-08-05T11:36:08.634Z,49.40
2022-08-05T11:37:06.246Z,49.60
2022-08-05T11:38:28.420Z,49.58
2022-08-05T11:39:04.782Z,48.89
2022-08-05T11:40:04.626Z,49.08
2022-08-05T11:41:35.359Z,48.18
2022-08-05T11:42:04.890Z,48.18
2022-08-05T11:43:03.709Z,48.37
2022-08-05T11:44:05.963Z,47.49
2022-08-05T11:45:03.657Z,48.27
2022-08-05T11:46:15.573Z,48.08
2022-08-05T11:47:13.789Z,49.16
2022-08-05T11:48:04.626Z,48.27
2022-08-05T11:49:03.613Z,48.37
2022-08-05T11:50:03.615Z,48.47
2022-08-05T11:51:03.579Z,47.88
2022-08-05T11:52:11.451Z,48.00
2022-08-05T11:53:04.546Z,49.08
2022-08-05T11:54:04.635Z,49.38
2022-08-05T11:55:07.428Z,49.28
2022-08-05T11:56:03.545Z,49.18
2022-08-05T11:57:07.673Z,49.46
2022-08-05T11:58:09.649Z,49.35
2022-08-05T11:59:04.548Z,48.49
2022-08-05T12:00:04.474Z,48.30
2022-08-05T12:01:03.461Z,49.28
2022-08-05T12:02:03.486Z,49.08
2022-08-05T12:03:03.480Z,49.58
2022-08-05T12:04:03.498Z,49.26
2022-08-05T12:05:07.083Z,48.27
2022-08-05T12:06:03.408Z,48.30
2022-08-05T12:07:03.419Z,48.27
2022-08-05T12:08:10.068Z,48.37
2022-08-05T12:09:04.375Z,50.14
2022-08-05T12:10:09.210Z,47.88
2022-08-05T12:11:06.161Z,49.16
2022-08-05T12:12:03.345Z,48.08
2022-08-05T12:13:03.339Z,47.88
2022-08-05T12:14:04.561Z,47.98
2022-08-05T12:15:03.351Z,48.18
2022-08-05T12:16:03.358Z,49.33
2022-08-05T12:17:04.298Z,47.66
2022-08-05T12:18:11.954Z,47.86
2022-08-05T12:19:04.299Z,48.25
2022-08-05T12:20:25.724Z,47.56
2022-08-05T12:21:04.398Z,46.97
2022-08-05T12:22:03.430Z,45.99
2022-08-05T12:23:04.229Z,46.88
2022-08-05T12:24:05.001Z,47.36
2022-08-05T12:25:03.217Z,47.54
2022-08-05T12:26:03.225Z,47.64
2022-08-05T12:27:09.757Z,47.25
2022-08-05T12:28:04.168Z,47.64
2022-08-05T12:29:03.501Z,46.46
2022-08-05T12:30:03.540Z,47.42
2022-08-05T12:31:03.156Z,47.61
2022-08-05T12:32:04.503Z,47.32
2022-08-05T12:33:07.383Z,46.63
2022-08-05T12:34:04.150Z,45.75
2022-08-05T12:35:04.101Z,46.14
2022-08-05T12:36:03.172Z,46.04
2022-08-05T12:37:03.276Z,46.63
2022-08-05T12:38:03.098Z,46.44
2022-08-05T12:39:03.118Z,46.12
2022-08-05T12:40:10.698Z,46.12
2022-08-05T12:41:04.044Z,46.41
2022-08-05T12:42:03.033Z,46.22
2022-08-05T12:43:03.010Z,46.78
2022-08-05T12:44:03.071Z,46.02
2022-08-05T12:45:03.023Z,46.59
2022-08-05T12:46:03.976Z,45.51
2022-08-05T12:47:03.642Z,45.43
2022-08-05T12:48:26.827Z,45.83
2022-08-05T12:49:05.733Z,45.53
2022-08-05T12:50:06.247Z,45.63
2022-08-05T12:51:02.918Z,45.53
2022-08-05T12:52:14.199Z,45.14
2022-08-05T12:53:03.899Z,46.31
2022-08-05T12:54:02.940Z,46.31